| Date | Time | Temp. (oF) | Dew Point (oF) | Rel. Hum. (%) | Press. (in.) | Wind Dir. | Wind Speed (mph) | Hourly Rainfall (in.) |
|
|---|---|---|---|---|---|---|---|---|---|
| 1 | 03/07 | 00:00 | 5 | 3 | 95 | 30.37 | SSW | 0 | 0.00 |
| 2 | 03/06 | 23:00 | 7 | 5 | 94 | 30.39 | SSE | 0 | 0.00 |
| 3 | 03/06 | 22:00 | 9 | 6 | 90 | 30.39 | SE | 0 | 0.00 |
| 4 | 03/06 | 21:00 | 11 | 6 | 83 | 30.40 | SSW | 0 | 0.00 |
| 5 | 03/06 | 20:00 | 14 | 8 | 78 | 30.39 | S | 0 | 0.00 |
| 6 | 03/06 | 19:00 | 17 | 10 | 76 | 30.40 | S | 0 | 0.00 |
| 7 | 03/06 | 18:00 | 19 | 11 | 72 | 30.40 | S | 0 | 0.00 |
| 8 | 03/06 | 17:00 | 23 | 14 | 71 | 30.39 | SSW | 0 | 0.00 |
| 9 | 03/06 | 16:00 | 22 | 14 | 73 | 30.41 | N | 4 | 0.00 |
| 10 | 03/06 | 15:00 | 21 | 15 | 80 | 30.44 | N | 2 | 0.00 |
| 11 | 03/06 | 14:00 | 20 | 17 | 90 | 30.47 | WNW | 3 | 0.00 |
| 12 | 03/06 | 13:00 | 18 | 15 | 90 | 30.51 | WNW | 7 | 0.00 |
| 13 | 03/06 | 12:00 | 17 | 14 | 90 | 30.55 | WNW | 7 | 0.00 |
| 14 | 03/06 | 11:00 | 15 | 13 | 95 | 30.57 | NNE | 6 | 0.00 |
| 15 | 03/06 | 10:00 | 14 | 13 | 98 | 30.59 | NNW | 5 | 0.00 |
| 16 | 03/06 | 09:00 | 11 | 10 | 97 | 30.60 | WNW | 8 | 0.00 |
| 17 | 03/06 | 08:00 | 8 | 7 | 98 | 30.58 | NNW | 8 | 0.00 |
| 18 | 03/06 | 07:00 | 5 | 4 | 99 | 30.56 | NNW | 4 | 0.00 |
| 19 | 03/06 | 06:00 | 5 | 4 | 99 | 30.56 | W | 3 | 0.00 |
| 20 | 03/06 | 05:00 | 6 | 5 | 99 | 30.51 | N | 2 | 0.00 |
| 21 | 03/06 | 04:00 | 7 | 6 | 100 | 30.48 | N | 5 | 0.00 |
| 22 | 03/06 | 03:00 | 9 | 9 | 100 | 30.48 | N | 6 | 0.00 |
| 23 | 03/06 | 02:00 | 10 | 9 | 100 | 30.46 | NNW | 3 | 0.00 |
| 24 | 03/06 | 01:00 | 12 | 12 | 100 | 30.43 | NE | 0 | 0.00 |